Time;durP1;ratioP1;P1;durP2;ratioP2;P2;SDS_P1;SDS_P2;PMS_P1;PMS_P2;Temp;Humidity;BMP_temperature;BMP_pressure;BME280_temperature;BME280_humidity;BME280_pressure;Samples;Min_cycle;Max_cycle;Signal;HPM_P1;HPM_P2
2022/12/12 00:00:50;;;;;;;27.07;17.30;;;;;;;1.01;79.69;98074.09;5032663;27;102973;-61
2022/12/12 00:03:18;;;;;;;26.57;17.77;;;;;;;1.07;79.22;98076.41;5031673;27;103393;-61
2022/12/12 00:05:46;;;;;;;26.13;17.90;;;;;;;1.07;78.74;98074.66;5033160;27;103186;-62
2022/12/12 00:08:17;;;;;;;22.27;16.07;;;;;;;0.98;79.15;98076.84;5032946;27;102844;-61
2022/12/12 00:10:45;;;;;;;21.10;14.30;;;;;;;0.97;79.30;98078.59;5012203;27;102915;-61
2022/12/12 00:13:13;;;;;;;28.23;17.50;;;;;;;0.74;78.82;98083.06;5032255;27;103296;-62
2022/12/12 00:15:41;;;;;;;30.77;18.97;;;;;;;0.81;78.88;98077.56;5033439;27;103430;-61
2022/12/12 00:18:10;;;;;;;24.90;17.93;;;;;;;0.81;78.45;98081.91;5030970;27;102768;-62
2022/12/12 00:20:38;;;;;;;23.53;15.07;;;;;;;0.80;78.90;98078.47;5014413;27;102842;-61
2022/12/12 00:23:08;;;;;;;22.90;15.17;;;;;;;0.90;78.89;98081.53;5032526;27;104501;-61
2022/12/12 00:25:36;;;;;;;23.73;16.07;;;;;;;0.89;78.53;98078.06;5030142;27;103241;-61
2022/12/12 00:28:04;;;;;;;28.73;17.13;;;;;;;0.70;78.58;98078.94;5030514;27;102975;-61
2022/12/12 00:30:32;;;;;;;24.07;15.27;;;;;;;0.84;78.70;98079.19;5031655;27;102810;-62
2022/12/12 00:33:00;;;;;;;20.97;13.70;;;;;;;0.96;78.66;98078.63;5030179;27;103318;-61
2022/12/12 00:35:29;;;;;;;24.53;16.13;;;;;;;0.94;78.41;98080.47;5030754;27;103259;-61
2022/12/12 00:37:58;;;;;;;24.80;17.47;;;;;;;0.75;78.61;98082.19;5029448;27;102682;-61
2022/12/12 00:40:26;;;;;;;24.83;17.40;;;;;;;0.61;79.31;98079.31;5030597;27;102612;-61
2022/12/12 00:42:54;;;;;;;26.27;16.73;;;;;;;0.80;79.37;98078.47;5011317;27;104148;-61
2022/12/12 00:45:22;;;;;;;23.23;16.37;;;;;;;0.87;78.96;98084.25;5031512;27;103214;-61
2022/12/12 00:47:52;;;;;;;24.47;16.20;;;;;;;0.81;78.71;98081.91;5031437;27;102673;-61
2022/12/12 00:50:20;;;;;;;24.03;17.00;;;;;;;0.75;78.48;98084.78;5032313;27;103769;-61
2022/12/12 00:52:49;;;;;;;25.63;16.73;;;;;;;0.77;78.52;98088.16;5033134;27;103221;-61
2022/12/12 00:55:17;;;;;;;22.87;16.27;;;;;;;0.81;78.33;98087.13;5017161;27;103839;-62
2022/12/12 00:57:45;;;;;;;21.97;15.17;;;;;;;0.89;78.88;98087.63;5031863;27;102626;-61
2022/12/12 01:00:14;;;;;;;26.23;18.20;;;;;;;0.88;78.27;98089.38;5028699;27;102827;-61
2022/12/12 01:02:42;;;;;;;26.57;16.20;;;;;;;0.75;78.84;98087.38;5014667;27;103546;-61
2022/12/12 01:05:10;;;;;;;26.77;15.97;;;;;;;0.83;78.84;98082.69;5014377;27;104102;-61
2022/12/12 01:07:39;;;;;;;24.03;14.47;;;;;;;0.91;78.76;98085.81;5030123;27;102631;-61
2022/12/12 01:10:10;;;;;;;22.83;14.60;;;;;;;0.93;78.44;98081.38;5030003;27;102618;-62
2022/12/12 01:12:38;;;;;;;25.93;15.43;;;;;;;0.85;78.65;98086.91;5026960;27;105047;-63
2022/12/12 01:15:08;;;;;;;23.00;16.37;;;;;;;0.87;78.96;98081.66;5028436;27;103261;-62
2022/12/12 01:17:37;;;;;;;22.53;15.40;;;;;;;0.92;78.97;98070.16;5014589;27;102697;-61
2022/12/12 01:20:07;;;;;;;22.53;14.63;;;;;;;0.81;78.59;98082.78;5030052;27;102691;-61
2022/12/12 01:22:36;;;;;;;23.40;15.50;;;;;;;0.81;78.45;98079.31;5030880;27;103634;-61
2022/12/12 01:25:04;;;;;;;23.43;16.90;;;;;;;0.80;78.05;98083.66;5034188;27;104394;-61
2022/12/12 01:27:34;;;;;;;22.80;15.17;;;;;;;0.68;78.51;98080.72;5030717;27;102904;-62
2022/12/12 01:30:02;;;;;;;22.20;15.27;;;;;;;0.61;78.65;98084.50;5029434;27;102692;-64
2022/12/12 01:32:29;;;;;;;22.57;15.03;;;;;;;0.68;78.80;98085.94;5030631;27;103227;-61
2022/12/12 01:34:57;;;;;;;21.40;14.23;;;;;;;0.76;78.58;98089.09;5030588;27;104452;-61
2022/12/12 01:37:26;;;;;;;24.80;15.80;;;;;;;0.78;78.05;98080.31;5028157;27;103050;-61
2022/12/12 01:39:56;;;;;;;22.27;14.20;;;;;;;0.80;78.18;98095.81;5031914;27;102801;-61
2022/12/12 01:42:23;;;;;;;20.67;13.30;;;;;;;0.82;78.21;98087.03;5029223;27;103229;-61
2022/12/12 01:44:53;;;;;;;23.63;13.93;;;;;;;0.80;77.99;98093.22;5009599;27;103189;-61
2022/12/12 01:47:22;;;;;;;20.27;13.50;;;;;;;0.79;77.76;98094.97;5028980;27;102800;-61
2022/12/12 01:49:54;;;;;;;22.60;14.93;;;;;;;0.79;77.50;98088.91;5012745;27;103122;-61
2022/12/12 01:52:26;;;;;;;17.57;12.10;;;;;;;0.84;77.51;98093.00;5029503;27;103350;-61
2022/12/12 01:54:58;;;;;;;21.07;12.73;;;;;;;0.73;77.64;98097.00;5032645;27;103043;-61
2022/12/12 01:57:30;;;;;;;17.47;11.43;;;;;;;0.79;77.56;98099.31;5031027;27;102644;-61
2022/12/12 02:00:01;;;;;;;19.57;14.50;;;;;;;0.82;77.07;98097.44;5033596;27;103073;-61
2022/12/12 02:02:31;;;;;;;19.50;13.47;;;;;;;0.77;76.56;98095.94;5031157;27;103379;-61
2022/12/12 02:05:03;;;;;;;22.63;13.90;;;;;;;0.72;76.35;98090.09;5034081;27;104549;-61
2022/12/12 02:07:31;;;;;;;21.13;14.83;;;;;;;0.50;75.20;98092.78;5016715;27;102833;-61
2022/12/12 02:09:59;;;;;;;19.27;13.63;;;;;;;0.26;77.04;98094.59;5030124;27;103841;-61
2022/12/12 02:12:27;;;;;;;21.77;13.37;;;;;;;0.36;77.57;98095.94;5029919;27;103219;-61
2022/12/12 02:14:55;;;;;;;19.10;12.93;;;;;;;0.31;76.62;98091.84;5032753;27;103189;-60
2022/12/12 02:17:42;;;;;;;21.53;14.07;;;;;;;0.15;77.01;98095.94;5032064;27;102577;-62
2022/12/12 02:20:51;;;;;;;17.17;11.70;;;;;;;0.07;77.19;98101.47;5017919;27;102744;-62
2022/12/12 02:24:04;;;;;;;19.07;13.17;;;;;;;0.01;76.57;98106.88;5005797;27;103904;-62
2022/12/12 02:27:17;;;;;;;17.87;12.27;;;;;;;-0.01;76.56;98106.13;5011711;27;104279;-61
2022/12/12 02:30:12;;;;;;;16.93;11.93;;;;;;;-0.03;76.68;98102.75;4992213;27;102643;-61
2022/12/12 02:32:58;;;;;;;20.80;13.07;;;;;;;-0.10;76.85;98102.13;5036936;27;102863;-61
2022/12/12 02:35:35;;;;;;;20.10;13.23;;;;;;;-0.07;76.72;98095.97;5031072;27;103320;-61
2022/12/12 02:38:13;;;;;;;18.47;11.43;;;;;;;-0.09;76.92;98097.78;5033746;27;103185;-62
2022/12/12 02:40:46;;;;;;;15.50;11.20;;;;;;;-0.20;76.69;98108.59;5028762;27;102673;-61
2022/12/12 02:43:25;;;;;;;18.67;13.43;;;;;;;-0.34;77.72;98102.22;5013445;27;102704;-61
2022/12/12 02:45:58;;;;;;;16.40;10.57;;;;;;;-0.28;78.08;98102.00;5030135;27;103301;-62
2022/12/12 02:48:35;;;;;;;19.27;12.63;;;;;;;-0.46;77.80;98118.25;5016515;27;103221;-61
2022/12/12 02:51:05;;;;;;;19.40;13.00;;;;;;;-0.55;78.65;98113.41;5031937;27;102705;-62
2022/12/12 02:53:33;;;;;;;20.17;12.60;;;;;;;-0.67;78.27;98114.69;5015773;27;102753;-61
2022/12/12 02:56:07;;;;;;;19.53;12.77;;;;;;;-0.92;79.28;98114.75;5033930;27;103241;-61
2022/12/12 02:58:37;;;;;;;17.47;11.53;;;;;;;-0.92;79.83;98114.75;5032511;27;103158;-61
2022/12/12 03:01:19;;;;;;;17.20;12.03;;;;;;;-0.79;79.33;98118.63;5031982;27;103478;-61
2022/12/12 03:09:50;;;;;;;15.73;10.70;;;;;;;-0.92;78.32;98114.75;5030701;27;103227;-61
2022/12/12 03:12:27;;;;;;;13.53;10.00;;;;;;;-0.84;78.56;98112.72;5020099;27;102747;-62
2022/12/12 03:15:09;;;;;;;13.47;9.10;;;;;;;-0.74;78.42;98105.47;5034805;27;102851;-61
2022/12/12 03:17:42;;;;;;;15.97;10.20;;;;;;;-0.74;78.57;98114.09;5013896;27;103889;-61
2022/12/12 03:20:17;;;;;;;18.93;12.47;;;;;;;-0.97;78.49;98114.06;5031288;27;103247;-61
2022/12/12 03:22:53;;;;;;;20.67;13.43;;;;;;;-1.17;78.55;98113.91;5012061;27;103611;-61
2022/12/12 03:25:26;;;;;;;16.10;10.50;;;;;;;-0.98;79.86;98117.56;5012832;27;102864;-61
2022/12/12 03:28:01;;;;;;;14.70;9.67;;;;;;;-0.92;78.70;98119.06;5030577;27;103248;-61
2022/12/12 03:30:38;;;;;;;15.83;10.77;;;;;;;-0.91;78.60;98126.81;5030195;27;103261;-61
2022/12/12 03:33:14;;;;;;;13.83;9.40;;;;;;;-0.95;78.29;98120.03;5030528;27;102689;-62
2022/12/12 03:35:47;;;;;;;20.93;12.30;;;;;;;-0.99;78.51;98122.81;5032899;27;102707;-61
2022/12/12 03:38:23;;;;;;;13.77;9.37;;;;;;;-1.02;79.09;98123.75;5032720;27;103217;-61
2022/12/12 03:40:54;;;;;;;19.80;13.23;;;;;;;-1.24;78.89;98118.50;5033297;27;103242;-61
2022/12/12 03:43:25;;;;;;;16.90;11.00;;;;;;;-1.32;79.99;98124.81;5015803;27;102746;-62
2022/12/12 03:45:59;;;;;;;14.83;10.03;;;;;;;-1.14;79.96;98118.16;5030583;27;102905;-63
2022/12/12 03:48:29;;;;;;;16.53;11.03;;;;;;;-1.05;79.49;98117.81;5030737;27;103892;-61
2022/12/12 03:51:04;;;;;;;18.30;12.80;;;;;;;-1.29;78.70;98114.38;5033436;27;103655;-61
2022/12/12 03:53:37;;;;;;;18.87;12.93;;;;;;;-1.31;78.96;98118.72;5029973;27;102641;-60
2022/12/12 03:56:12;;;;;;;19.93;13.17;;;;;;;-1.21;79.87;98114.94;5027184;27;104063;-61
2022/12/12 03:58:47;;;;;;;22.00;14.40;;;;;;;-1.18;79.44;98122.59;5032136;27;104040;-61
2022/12/12 04:01:21;;;;;;;17.37;10.80;;;;;;;-1.12;79.71;98119.78;5033953;27;103212;-61
2022/12/12 04:03:56;;;;;;;16.87;11.13;;;;;;;-1.22;79.25;98123.59;5031321;27;103054;-66
2022/12/12 04:06:33;;;;;;;17.33;12.27;;;;;;;-1.19;79.80;98120.91;5033582;27;102561;-69
2022/12/12 04:14:59;;;;;;;19.30;12.40;;;;;;;-1.27;81.14;98125.50;5011410;27;102931;-61
2022/12/12 04:17:33;;;;;;;16.27;10.97;;;;;;;-1.20;80.88;98134.75;5030767;27;103728;-61
2022/12/12 04:23:17;;;;;;;16.60;11.83;;;;;;;-1.35;81.15;98135.28;5033744;27;103967;-61
2022/12/12 04:28:50;;;;;;;14.63;10.10;;;;;;;-1.12;82.04;98132.75;5031670;27;102868;-61
2022/12/12 04:31:25;;;;;;;13.10;8.63;;;;;;;-0.99;81.43;98134.03;5032098;27;104151;-60
2022/12/12 04:33:58;;;;;;;18.03;12.03;;;;;;;-0.99;80.32;98138.38;5013186;27;103502;-61
2022/12/12 04:36:26;;;;;;;17.47;10.83;;;;;;;-1.04;80.52;98140.28;5014981;27;102777;-61
2022/12/12 04:38:57;;;;;;;17.90;11.43;;;;;;;-0.97;80.49;98142.59;5031216;27;102756;-61
2022/12/12 04:41:27;;;;;;;18.27;12.27;;;;;;;-1.18;80.71;98151.13;5029112;27;103466;-62
2022/12/12 04:43:57;;;;;;;19.30;10.80;;;;;;;-1.10;81.27;98146.53;5031206;27;104562;-61
2022/12/12 04:46:28;;;;;;;19.03;12.40;;;;;;;-1.27;81.43;98144.50;5032089;27;102668;-61
2022/12/12 04:49:00;;;;;;;17.17;11.17;;;;;;;-1.30;81.57;98151.53;5011247;27;102803;-61
2022/12/12 04:51:31;;;;;;;15.23;10.27;;;;;;;-1.39;82.70;98154.41;5032032;27;104642;-61
2022/12/12 04:54:08;;;;;;;18.13;12.27;;;;;;;-1.22;82.34;98157.28;5030174;27;103167;-62
2022/12/12 04:56:39;;;;;;;17.80;11.77;;;;;;;-1.15;81.97;98156.19;5030688;27;103412;-61
2022/12/12 04:59:08;;;;;;;15.63;10.10;;;;;;;-0.99;81.83;98154.78;5028865;27;102749;-61
2022/12/12 05:01:45;;;;;;;23.33;14.40;;;;;;;-1.06;81.28;98158.47;5008926;27;103768;-60
2022/12/12 05:04:26;;;;;;;17.73;12.33;;;;;;;-1.17;81.27;98157.97;5013501;27;103218;-60
2022/12/12 05:06:59;;;;;;;19.43;12.53;;;;;;;-1.17;81.36;98161.44;5033514;27;103111;-60
2022/12/12 05:09:30;;;;;;;16.43;11.10;;;;;;;-0.98;81.06;98155.63;5016559;27;102814;-60
2022/12/12 05:11:58;;;;;;;20.17;12.87;;;;;;;-1.25;81.61;98158.25;5030930;27;103028;-60
2022/12/12 05:14:26;;;;;;;19.00;12.93;;;;;;;-1.19;81.75;98159.78;5026841;27;103176;-61
2022/12/12 05:17:01;;;;;;;25.83;14.90;;;;;;;-1.29;81.79;98163.59;5010176;27;103633;-60
2022/12/12 05:19:29;;;;;;;21.37;13.80;;;;;;;-1.11;81.45;98165.56;5011456;27;102815;-60
2022/12/12 05:21:56;;;;;;;25.33;14.77;;;;;;;-1.04;81.50;98166.19;5007551;27;104183;-60
2022/12/12 05:24:30;;;;;;;20.33;12.60;;;;;;;-0.97;81.27;98162.47;5028560;27;103261;-61
2022/12/12 05:27:01;;;;;;;18.77;12.37;;;;;;;-0.92;81.93;98171.78;5030292;27;102701;-61
2022/12/12 05:29:30;;;;;;;19.57;12.07;;;;;;;-0.74;81.14;98171.16;5030818;27;103897;-61
2022/12/12 05:31:58;;;;;;;17.50;12.20;;;;;;;-0.65;81.06;98170.00;5027829;27;104520;-60
2022/12/12 05:34:26;;;;;;;20.57;14.00;;;;;;;-0.63;80.55;98166.44;5025156;27;103137;-60
2022/12/12 05:36:54;;;;;;;22.13;13.50;;;;;;;-0.92;80.19;98176.97;5027517;27;104052;-61
2022/12/12 05:39:22;;;;;;;23.20;14.27;;;;;;;-0.93;81.19;98166.69;5027812;27;102729;-60
2022/12/12 05:41:51;;;;;;;20.83;13.97;;;;;;;-0.85;81.61;98170.69;5013221;27;104297;-60
2022/12/12 05:44:20;;;;;;;19.27;12.30;;;;;;;-0.79;81.05;98170.50;5027240;27;103421;-60
2022/12/12 05:46:48;;;;;;;17.90;12.87;;;;;;;-0.72;81.22;98173.69;5009012;27;103196;-61
2022/12/12 05:49:18;;;;;;;19.47;11.80;;;;;;;-0.63;80.92;98169.03;5029797;27;102966;-60
2022/12/12 05:51:46;;;;;;;22.77;15.03;;;;;;;-0.76;80.47;98172.13;5032091;27;103405;-60
2022/12/12 05:54:14;;;;;;;25.43;16.63;;;;;;;-0.86;80.00;98170.72;5010265;27;103399;-60
2022/12/12 05:56:41;;;;;;;22.13;14.77;;;;;;;-0.69;80.43;98182.22;5029199;27;102674;-60
2022/12/12 05:59:12;;;;;;;19.90;13.67;;;;;;;-0.68;79.82;98181.31;5018291;27;104269;-60
2022/12/12 06:01:43;;;;;;;24.67;17.47;;;;;;;-0.72;79.52;98189.25;5023460;27;103369;-60
2022/12/12 06:04:11;;;;;;;21.27;13.63;;;;;;;-0.69;79.74;98181.38;5028129;27;103208;-61
2022/12/12 06:06:39;;;;;;;18.40;13.07;;;;;;;-0.68;80.13;98185.66;5028957;27;102518;-60
2022/12/12 06:09:07;;;;;;;25.97;17.20;;;;;;;-0.65;79.73;98191.59;5026937;27;103700;-60
2022/12/12 06:11:35;;;;;;;24.00;15.93;;;;;;;-0.62;80.10;98190.63;5025965;27;104088;-62
2022/12/12 06:14:03;;;;;;;22.63;13.67;;;;;;;-0.57;80.02;98185.28;5007491;27;103191;-60
2022/12/12 06:16:31;;;;;;;22.60;16.23;;;;;;;-0.49;79.81;98191.03;5031366;27;102837;-61
2022/12/12 06:19:00;;;;;;;20.60;14.33;;;;;;;-0.41;79.52;98194.19;5029753;27;103690;-60
2022/12/12 06:21:28;;;;;;;20.70;14.10;;;;;;;-0.36;79.76;98182.75;5028567;27;103997;-61
2022/12/12 06:23:58;;;;;;;26.03;17.53;;;;;;;-0.43;79.14;98193.41;5033120;27;103165;-61
2022/12/12 06:26:26;;;;;;;23.53;15.10;;;;;;;-0.47;79.14;98194.41;5011044;27;102715;-60
2022/12/12 06:28:56;;;;;;;24.60;16.93;;;;;;;-0.42;79.40;98198.53;5012706;27;102725;-60
2022/12/12 06:31:24;;;;;;;24.60;17.17;;;;;;;-0.37;79.33;98200.97;5031823;27;103584;-60
2022/12/12 06:33:52;;;;;;;27.53;17.90;;;;;;;-0.48;79.10;98197.94;5002817;27;103166;-60
2022/12/12 06:36:23;;;;;;;20.30;14.17;;;;;;;-0.47;79.89;98200.44;5031652;27;102653;-69
2022/12/12 06:38:52;;;;;;;22.73;15.17;;;;;;;-0.37;80.33;98206.16;5029491;27;102709;-60
2022/12/12 06:41:20;;;;;;;22.93;15.27;;;;;;;-0.29;79.99;98204.13;5033094;27;103420;-60
2022/12/12 06:43:48;;;;;;;24.57;16.17;;;;;;;-0.30;80.12;98203.28;5036505;27;103309;-60
2022/12/12 06:46:18;;;;;;;22.80;15.27;;;;;;;-0.31;79.43;98206.78;5030673;27;102793;-61
2022/12/12 06:48:47;;;;;;;26.73;16.73;;;;;;;-0.32;79.42;98207.69;5013186;27;102704;-60
2022/12/12 06:51:17;;;;;;;19.07;13.40;;;;;;;-0.24;79.36;98199.63;5033663;27;103436;-60
2022/12/12 06:53:46;;;;;;;26.20;17.80;;;;;;;-0.36;80.18;98197.47;5015970;27;103197;-63
2022/12/12 06:56:16;;;;;;;27.60;17.67;;;;;;;-0.57;79.23;98206.03;5037191;27;102575;-60
2022/12/12 06:58:44;;;;;;;27.47;18.60;;;;;;;-0.48;79.09;98211.75;5014106;27;103963;-60
2022/12/12 07:01:14;;;;;;;25.53;17.03;;;;;;;-0.46;78.79;98212.53;5033097;27;103227;-61
2022/12/12 07:03:42;;;;;;;25.47;17.20;;;;;;;-0.52;78.82;98214.50;5029155;27;103432;-60
2022/12/12 07:06:10;;;;;;;27.43;17.73;;;;;;;-0.60;79.42;98223.41;5015838;27;104683;-60
2022/12/12 07:08:38;;;;;;;27.70;18.00;;;;;;;-0.62;79.61;98221.78;5018232;27;104051;-60
2022/12/12 07:11:10;;;;;;;24.00;15.40;;;;;;;-0.48;79.67;98222.13;4992031;27;103831;-60
2022/12/12 07:13:41;;;;;;;28.60;19.20;;;;;;;-0.46;78.95;98224.66;4997627;27;103293;-60
2022/12/12 07:16:09;;;;;;;27.67;17.73;;;;;;;-0.49;79.61;98212.66;4998690;27;103291;-60
2022/12/12 07:18:38;;;;;;;26.60;17.63;;;;;;;-0.59;80.13;98217.31;4999995;27;103230;-60
2022/12/12 07:21:07;;;;;;;29.73;17.50;;;;;;;-0.64;79.64;98219.22;4977266;27;103993;-61
2022/12/12 07:23:36;;;;;;;27.17;18.17;;;;;;;-0.62;80.28;98222.59;4970611;28;103214;-61
2022/12/12 07:26:05;;;;;;;28.37;18.20;;;;;;;-0.51;79.99;98224.84;4995552;27;104462;-61
2022/12/12 07:28:36;;;;;;;28.10;18.67;;;;;;;-0.52;79.35;98227.47;5003423;27;102824;-60
2022/12/12 07:31:06;;;;;;;26.47;16.67;;;;;;;-0.64;79.98;98229.59;5023325;27;105096;-60
2022/12/12 07:33:34;;;;;;;29.80;16.93;;;;;;;-0.55;79.62;98230.16;5031889;27;103366;-60
2022/12/12 07:36:11;;;;;;;27.63;17.87;;;;;;;-0.75;80.07;98238.66;5032902;27;102577;-60
2022/12/12 07:38:39;;;;;;;25.37;16.73;;;;;;;-0.55;79.65;98235.34;5036525;27;103773;-60
2022/12/12 07:41:09;;;;;;;24.47;16.80;;;;;;;-0.37;79.45;98237.31;5035755;27;103932;-61
2022/12/12 07:43:40;;;;;;;28.70;18.57;;;;;;;-0.42;78.81;98239.22;5030743;27;103014;-61
2022/12/12 07:46:13;;;;;;;29.23;18.77;;;;;;;-0.43;79.48;98247.91;5028445;27;102688;-60
2022/12/12 07:48:41;;;;;;;24.93;17.03;;;;;;;-0.40;79.52;98245.22;5033019;27;102655;-60
2022/12/12 07:51:10;;;;;;;25.90;17.47;;;;;;;-0.44;79.36;98254.00;5028949;27;103249;-61
2022/12/12 07:53:37;;;;;;;27.27;17.73;;;;;;;-0.43;79.43;98247.91;5029534;27;102965;-61
2022/12/12 07:56:06;;;;;;;26.37;18.03;;;;;;;-0.39;78.97;98250.34;5015203;27;102638;-61
2022/12/12 07:58:34;;;;;;;26.37;18.30;;;;;;;-0.57;79.12;98258.78;5033060;27;103368;-60
2022/12/12 08:01:08;;;;;;;27.53;17.67;;;;;;;-0.50;79.09;98249.88;5028728;27;104109;-60
2022/12/12 08:03:42;;;;;;;29.83;17.30;;;;;;;-0.59;80.21;98258.81;5008695;27;103879;-60
2022/12/12 08:06:10;;;;;;;27.93;17.80;;;;;;;-0.59;80.24;98258.81;5013565;27;103044;-60
2022/12/12 08:08:39;;;;;;;31.00;19.17;;;;;;;-0.50;79.30;98251.59;5012280;27;102814;-60
2022/12/12 08:11:09;;;;;;;25.17;17.67;;;;;;;-0.27;79.48;98249.91;5010102;27;103269;-60
2022/12/12 08:13:38;;;;;;;24.63;15.53;;;;;;;-0.10;78.41;98254.47;5029099;27;103212;-60
2022/12/12 08:16:13;;;;;;;26.53;17.23;;;;;;;-0.06;78.64;98263.88;5027320;27;102636;-60
2022/12/12 08:18:42;;;;;;;26.33;17.77;;;;;;;-0.02;78.60;98270.63;5024146;27;102789;-60
2022/12/12 08:21:11;;;;;;;30.27;18.43;;;;;;;-0.01;78.29;98277.53;5030861;27;103276;-61
2022/12/12 08:23:40;;;;;;;29.37;19.10;;;;;;;-0.03;78.00;98274.97;5014478;27;103161;-61
2022/12/12 08:26:10;;;;;;;27.90;18.73;;;;;;;-0.06;78.76;98271.66;5029072;27;102675;-62
2022/12/12 08:28:40;;;;;;;27.93;18.70;;;;;;;0.17;78.20;98276.81;5010679;27;103074;-61
2022/12/12 08:31:09;;;;;;;26.73;16.97;;;;;;;0.26;77.05;98279.09;5004009;27;104389;-61
2022/12/12 08:33:37;;;;;;;28.87;19.20;;;;;;;0.28;77.35;98284.25;5027445;27;103193;-61
2022/12/12 08:36:14;;;;;;;23.37;15.27;;;;;;;0.44;77.25;98278.41;5029656;27;102816;-60
2022/12/12 08:38:43;;;;;;;29.23;19.13;;;;;;;0.43;76.68;98289.69;5028869;27;104204;-61
2022/12/12 08:41:11;;;;;;;28.10;17.83;;;;;;;0.46;77.03;98284.38;5034255;27;103277;-61
2022/12/12 08:43:41;;;;;;;24.37;15.60;;;;;;;0.70;76.66;98293.00;5030181;27;103318;-60
2022/12/12 08:46:11;;;;;;;28.53;18.90;;;;;;;0.46;74.74;98291.31;5022729;27;103394;-60
2022/12/12 08:48:45;;;;;;;23.77;15.33;;;;;;;0.70;75.49;98282.59;5028618;27;102691;-60
2022/12/12 08:51:13;;;;;;;25.17;15.27;;;;;;;0.84;75.34;98287.25;5026115;27;103371;-61
2022/12/12 08:53:43;;;;;;;27.83;18.30;;;;;;;0.70;75.80;98282.59;5028421;27;103113;-62
2022/12/12 08:56:11;;;;;;;23.63;15.67;;;;;;;0.63;75.70;98290.66;5022493;27;102654;-60
2022/12/12 08:58:39;;;;;;;25.17;17.77;;;;;;;0.37;75.22;98292.50;5023640;27;104130;-62
2022/12/12 09:01:11;;;;;;;24.33;17.40;;;;;;;0.14;75.50;98286.50;5023806;27;103182;-61
2022/12/12 09:03:42;;;;;;;27.13;17.70;;;;;;;-0.02;76.00;98294.00;5028723;27;102611;-60
2022/12/12 09:06:11;;;;;;;27.40;17.67;;;;;;;0.49;75.69;98292.06;5025272;27;102698;-61
2022/12/12 09:08:39;;;;;;;23.47;15.17;;;;;;;0.73;75.10;98292.03;5022109;27;102696;-61
2022/12/12 09:11:08;;;;;;;24.87;17.67;;;;;;;0.84;74.47;98300.25;5026759;27;103183;-61
2022/12/12 09:13:36;;;;;;;24.93;17.10;;;;;;;0.88;74.23;98296.59;4965750;27;103525;-60
2022/12/12 09:16:06;;;;;;;23.97;15.70;;;;;;;0.90;75.31;98295.63;5008177;27;102795;-61
2022/12/12 09:18:36;;;;;;;26.50;17.93;;;;;;;0.65;75.64;98301.88;5014564;27;103537;-61
2022/12/12 09:21:11;;;;;;;23.47;17.33;;;;;;;0.92;75.30;98303.38;5014253;27;103235;-61
2022/12/12 09:23:51;;;;;;;32.00;20.17;;;;;;;1.08;74.40;98312.25;5025112;27;103195;-63
2022/12/12 09:26:31;;;;;;;27.93;18.47;;;;;;;0.95;74.17;98313.66;4995034;27;102681;-62
2022/12/12 09:28:58;;;;;;;28.80;18.97;;;;;;;1.19;73.98;98307.47;5028759;27;102803;-61
2022/12/12 09:31:26;;;;;;;28.10;16.83;;;;;;;1.16;73.92;98315.38;5035408;27;103278;-61
2022/12/12 09:33:56;;;;;;;25.93;17.60;;;;;;;0.82;74.84;98318.50;5005925;27;104068;-61
2022/12/12 09:36:24;;;;;;;24.13;17.37;;;;;;;0.93;74.63;98318.91;5031384;27;103077;-62
2022/12/12 09:38:52;;;;;;;24.27;18.17;;;;;;;1.04;73.86;98326.28;5024765;27;102712;-62
2022/12/12 09:41:23;;;;;;;29.20;19.90;;;;;;;0.99;74.08;98312.63;5020803;27;104073;-61
2022/12/12 09:43:57;;;;;;;25.93;17.30;;;;;;;1.36;74.41;98312.81;5023388;27;103314;-61
2022/12/12 09:46:31;;;;;;;25.07;17.63;;;;;;;1.27;74.08;98315.78;5007796;27;102757;-61
2022/12/12 09:49:12;;;;;;;27.57;18.03;;;;;;;1.40;72.47;98306.59;5025094;27;102694;-61
2022/12/12 09:51:42;;;;;;;27.30;18.23;;;;;;;1.39;72.28;98312.69;5022288;27;103266;-61
2022/12/12 09:54:14;;;;;;;29.53;17.40;;;;;;;1.34;73.11;98308.59;4998192;27;103187;-62
2022/12/12 09:56:50;;;;;;;23.27;17.33;;;;;;;1.49;73.39;98311.38;5022950;27;102608;-61
2022/12/12 09:59:28;;;;;;;28.50;17.77;;;;;;;1.53;72.82;98305.16;5022724;27;102650;-61
2022/12/12 10:02:04;;;;;;;24.37;17.03;;;;;;;1.37;72.15;98293.69;5015186;27;103220;-60
2022/12/12 10:04:39;;;;;;;21.90;15.70;;;;;;;1.30;73.66;98294.84;5019417;27;103235;-61
2022/12/12 10:07:14;;;;;;;26.07;17.43;;;;;;;1.57;72.77;98291.06;5029342;27;103083;-61
2022/12/12 10:09:58;;;;;;;28.87;17.83;;;;;;;1.63;73.13;98293.44;5027987;27;103201;-61
2022/12/12 10:12:29;;;;;;;22.47;16.07;;;;;;;1.60;72.20;98293.56;5024892;27;103248;-62
2022/12/12 10:15:01;;;;;;;26.60;17.60;;;;;;;1.59;72.02;98289.28;5031279;27;103213;-61
2022/12/12 10:17:33;;;;;;;27.77;17.80;;;;;;;1.71;71.58;98285.31;5022704;27;102659;-62
2022/12/12 10:20:06;;;;;;;25.50;16.90;;;;;;;1.81;71.15;98291.78;5025381;27;103758;-62
2022/12/12 10:22:41;;;;;;;25.63;16.47;;;;;;;1.63;71.78;98292.56;5026311;27;104173;-61
2022/12/12 10:25:20;;;;;;;23.60;17.03;;;;;;;1.11;71.92;98296.53;5023885;27;103196;-62
2022/12/12 10:27:51;;;;;;;26.00;16.57;;;;;;;0.57;74.71;98297.81;5007776;27;102811;-61
2022/12/12 10:30:27;;;;;;;24.13;17.27;;;;;;;0.77;73.92;98296.19;5003421;27;102829;-61
2022/12/12 10:33:16;;;;;;;29.93;18.43;;;;;;;1.35;73.89;98298.09;5007719;27;104179;-61
2022/12/12 10:35:52;;;;;;;26.50;17.60;;;;;;;1.74;72.22;98285.16;5010091;27;103265;-61
2022/12/12 10:38:37;;;;;;;27.47;17.37;;;;;;;2.04;69.80;98293.38;5015496;27;103206;-61
2022/12/12 10:41:13;;;;;;;22.47;16.40;;;;;;;2.25;68.33;98289.81;5022629;27;102691;-62
2022/12/12 10:43:48;;;;;;;28.43;18.00;;;;;;;1.75;71.32;98287.69;5004476;27;103219;-61
2022/12/12 10:46:24;;;;;;;23.87;16.57;;;;;;;2.20;69.44;98286.56;5006899;27;103354;-60
2022/12/12 10:48:53;;;;;;;24.27;16.47;;;;;;;2.21;70.07;98290.88;5017511;27;102704;-61
2022/12/12 10:51:26;;;;;;;25.67;17.07;;;;;;;2.76;69.35;98276.09;5027635;27;102838;-61
2022/12/12 10:53:54;;;;;;;26.50;17.60;;;;;;;2.89;66.73;98280.66;4998826;27;104191;-61
2022/12/12 10:56:25;;;;;;;25.67;16.97;;;;;;;3.11;67.13;98274.41;5028734;27;103213;-61
2022/12/12 10:58:55;;;;;;;26.43;16.83;;;;;;;3.29;66.21;98263.06;5005102;27;102724;-61
2022/12/12 11:01:27;;;;;;;24.13;17.00;;;;;;;3.25;65.46;98261.53;5025557;27;102721;-61
2022/12/12 11:04:16;;;;;;;24.53;16.13;;;;;;;3.05;65.91;98264.28;5000850;27;103885;-61
2022/12/12 11:06:50;;;;;;;23.57;15.90;;;;;;;3.20;64.75;98263.53;5020744;27;103232;-62
2022/12/12 11:09:20;;;;;;;23.27;15.70;;;;;;;3.63;64.62;98257.81;5004910;27;102747;-61
2022/12/12 11:12:00;;;;;;;21.43;15.77;;;;;;;3.81;62.54;98262.13;5021203;27;104215;-61
2022/12/12 11:14:33;;;;;;;17.07;12.20;;;;;;;3.82;59.96;98257.69;5025597;27;103237;-61
2022/12/12 11:17:02;;;;;;;20.03;13.23;;;;;;;3.27;60.52;98265.75;5024037;27;103033;-62
2022/12/12 11:19:38;;;;;;;15.53;10.70;;;;;;;4.07;61.56;98252.88;5024718;27;103023;-61
2022/12/12 11:22:07;;;;;;;18.97;11.90;;;;;;;4.28;57.64;98251.75;5030756;27;102578;-61
2022/12/12 11:24:39;;;;;;;15.27;10.17;;;;;;;4.12;56.86;98256.13;5032074;27;103393;-61
2022/12/12 11:27:07;;;;;;;16.50;11.47;;;;;;;4.31;57.87;98248.13;5028614;27;103152;-62
2022/12/12 11:29:42;;;;;;;15.73;10.87;;;;;;;4.63;58.20;98257.69;5023590;27;102722;-61
2022/12/12 11:32:14;;;;;;;18.93;10.63;;;;;;;4.24;58.45;98252.00;5029575;27;102672;-61
2022/12/12 11:34:47;;;;;;;17.43;11.37;;;;;;;4.75;56.55;98251.75;5028827;27;104823;-61
2022/12/12 11:37:18;;;;;;;17.23;12.60;;;;;;;4.66;57.36;98242.63;5026833;27;102975;-61
2022/12/12 11:39:50;;;;;;;18.10;11.80;;;;;;;3.09;58.44;98251.00;5028456;27;102685;-62
2022/12/12 11:42:29;;;;;;;15.27;11.17;;;;;;;4.51;58.38;98247.88;5028495;27;102644;-61
2022/12/12 11:45:00;;;;;;;15.23;9.90;;;;;;;5.18;54.80;98244.91;5024459;27;103332;-61
2022/12/12 11:47:34;;;;;;;15.33;10.30;;;;;;;5.46;55.59;98245.00;5022603;27;103199;-61
2022/12/12 11:50:17;;;;;;;20.67;15.17;;;;;;;4.22;59.88;98251.22;5011550;27;103047;-61
2022/12/12 11:52:48;;;;;;;23.47;16.17;;;;;;;3.24;60.94;98247.63;5014447;27;102799;-61